Time;durP1;ratioP1;P1;durP2;ratioP2;P2;SDS_P1;SDS_P2;PMS_P1;PMS_P2;Temp;Humidity;BMP_temperature;BMP_pressure;BME280_temperature;BME280_humidity;BME280_pressure;Samples;Min_cycle;Max_cycle;Signal;HPM_P1;HPM_P2
2023/05/17 00:00:09;;;;;;;3.90;1.65;;;;;;;;;;5025487;28;20039;-77
2023/05/17 00:02:35;;;;;;;3.25;1.30;;;;;;;;;;5021786;28;20053;-77
2023/05/17 00:05:01;;;;;;;5.75;2.22;;;;;;;;;;5025632;28;20088;-76
2023/05/17 00:07:26;;;;;;;5.90;2.03;;;;;;;;;;5023508;28;20044;-77
2023/05/17 00:09:52;;;;;;;5.63;1.88;;;;;;;;;;5029951;28;20444;-76
2023/05/17 00:12:17;;;;;;;3.63;1.35;;;;;;;;;;5000638;28;20049;-77
2023/05/17 00:14:42;;;;;;;4.85;1.77;;;;;;;;;;5037933;28;20166;-77
2023/05/17 00:17:08;;;;;;;4.55;1.83;;;;;;;;;;5027948;28;20043;-77
2023/05/17 00:19:33;;;;;;;7.53;1.85;;;;;;;;;;5033703;28;20053;-78
2023/05/17 00:21:58;;;;;;;2.40;1.27;;;;;;;;;;5015976;28;20437;-78
2023/05/17 00:24:25;;;;;;;4.65;1.65;;;;;;;;;;5027779;28;20036;-78
2023/05/17 00:26:50;;;;;;;5.95;2.30;;;;;;;;;;5024228;28;20091;-78
2023/05/17 00:29:16;;;;;;;4.60;2.17;;;;;;;;;;5029015;28;20037;-77
2023/05/17 00:31:41;;;;;;;3.03;1.90;;;;;;;;;;5031438;28;20053;-78
2023/05/17 00:34:06;;;;;;;5.35;2.00;;;;;;;;;;5025692;28;20116;-78
2023/05/17 00:36:32;;;;;;;4.47;1.83;;;;;;;;;;5019963;28;20068;-78
2023/05/17 00:38:57;;;;;;;4.95;2.22;;;;;;;;;;5022097;28;20047;-79
2023/05/17 00:41:23;;;;;;;4.20;1.90;;;;;;;;;;5012632;28;20589;-77
2023/05/17 00:43:48;;;;;;;2.72;1.67;;;;;;;;;;5030447;28;20044;-78
2023/05/17 00:46:14;;;;;;;6.57;2.53;;;;;;;;;;5031754;28;20533;-78
2023/05/17 00:48:40;;;;;;;6.40;2.40;;;;;;;;;;5026113;28;20071;-78
2023/05/17 00:51:06;;;;;;;4.18;2.13;;;;;;;;;;5015868;28;20396;-77
2023/05/17 00:53:32;;;;;;;4.03;1.90;;;;;;;;;;5017098;28;20049;-76
2023/05/17 00:55:59;;;;;;;4.32;1.80;;;;;;;;;;5026230;28;20045;-79
2023/05/17 00:58:25;;;;;;;4.43;2.05;;;;;;;;;;5026979;28;20063;-79
2023/05/17 01:00:50;;;;;;;5.15;2.08;;;;;;;;;;5027602;28;20080;-77
2023/05/17 01:03:16;;;;;;;5.10;2.05;;;;;;;;;;5028338;28;20048;-78
2023/05/17 01:05:41;;;;;;;5.20;1.90;;;;;;;;;;5022663;28;20115;-77
2023/05/17 01:08:07;;;;;;;3.22;1.95;;;;;;;;;;5014809;28;20441;-77
2023/05/17 01:10:42;;;;;;;7.00;2.20;;;;;;;;;;5024813;28;20074;-77
2023/05/17 01:13:14;;;;;;;4.68;1.63;;;;;;;;;;5026890;28;20106;-78
2023/05/17 01:15:47;;;;;;;3.50;2.05;;;;;;;;;;5027089;28;20037;-77
2023/05/17 01:18:45;;;;;;;6.47;2.35;;;;;;;;;;4998666;28;20042;-77
2023/05/17 01:21:40;;;;;;;3.58;2.15;;;;;;;;;;4911302;28;20063;-77
2023/05/17 01:24:23;;;;;;;4.55;2.03;;;;;;;;;;5003412;28;20093;-77
2023/05/17 01:26:50;;;;;;;4.75;2.03;;;;;;;;;;5009731;28;20118;-77
2023/05/17 01:29:20;;;;;;;5.88;2.15;;;;;;;;;;5019454;28;20041;-77
2023/05/17 01:31:48;;;;;;;5.55;2.17;;;;;;;;;;5024397;28;20063;-76
2023/05/17 01:34:13;;;;;;;5.75;1.73;;;;;;;;;;5019911;28;20037;-76
2023/05/17 01:36:39;;;;;;;8.75;2.15;;;;;;;;;;5023949;28;20037;-75
2023/05/17 01:39:04;;;;;;;4.10;1.60;;;;;;;;;;4998311;28;20409;-75
2023/05/17 01:41:37;;;;;;;1.63;1.08;;;;;;;;;;5027978;28;20037;-76
2023/05/17 01:44:24;;;;;;;4.07;1.60;;;;;;;;;;4992544;28;20059;-75
2023/05/17 01:46:53;;;;;;;5.97;2.15;;;;;;;;;;5025984;28;20040;-75
2023/05/17 01:49:24;;;;;;;4.60;1.42;;;;;;;;;;5022263;28;20131;-75
2023/05/17 01:51:59;;;;;;;2.22;1.40;;;;;;;;;;5020306;28;20876;-76
2023/05/17 01:54:35;;;;;;;4.57;1.60;;;;;;;;;;5024275;28;20124;-76
2023/05/17 01:57:05;;;;;;;4.25;1.92;;;;;;;;;;5017120;28;20147;-76
2023/05/17 01:59:32;;;;;;;4.80;2.00;;;;;;;;;;5025378;28;20029;-75
2023/05/17 02:02:06;;;;;;;6.25;1.75;;;;;;;;;;5029178;28;20072;-76
2023/05/17 02:04:32;;;;;;;4.65;1.48;;;;;;;;;;4999814;28;20050;-75
2023/05/17 02:06:57;;;;;;;6.20;1.80;;;;;;;;;;5024564;28;20029;-75
2023/05/17 02:09:22;;;;;;;5.13;2.13;;;;;;;;;;5021961;28;20174;-75
2023/05/17 02:11:48;;;;;;;5.05;1.90;;;;;;;;;;5032988;28;20036;-75
2023/05/17 02:14:13;;;;;;;5.35;1.92;;;;;;;;;;5010313;28;20627;-75
2023/05/17 02:16:38;;;;;;;2.45;1.40;;;;;;;;;;5019012;28;20056;-76
2023/05/17 02:19:04;;;;;;;1.80;1.15;;;;;;;;;;5032937;28;20464;-76
2023/05/17 02:21:30;;;;;;;1.42;0.93;;;;;;;;;;5032034;28;20040;-76
2023/05/17 02:23:56;;;;;;;3.35;1.33;;;;;;;;;;5024347;28;20073;-76
2023/05/17 02:26:22;;;;;;;2.30;1.30;;;;;;;;;;5027431;28;20041;-76
2023/05/17 02:28:47;;;;;;;3.53;1.40;;;;;;;;;;5034215;28;20541;-76
2023/05/17 02:31:12;;;;;;;2.20;1.40;;;;;;;;;;5020492;28;20040;-75
2023/05/17 02:33:38;;;;;;;4.07;1.58;;;;;;;;;;5027488;28;20480;-75
2023/05/17 02:36:03;;;;;;;5.22;1.40;;;;;;;;;;5023425;28;20127;-76
2023/05/17 02:38:29;;;;;;;4.88;1.85;;;;;;;;;;5034572;28;20032;-75
2023/05/17 02:40:54;;;;;;;3.60;1.42;;;;;;;;;;5028639;28;20508;-75
2023/05/17 02:43:20;;;;;;;8.30;1.95;;;;;;;;;;5010993;28;20033;-75
2023/05/17 02:45:45;;;;;;;2.25;1.20;;;;;;;;;;5022461;28;20045;-75
2023/05/17 02:48:10;;;;;;;4.28;1.63;;;;;;;;;;5030590;28;20140;-75
2023/05/17 02:50:36;;;;;;;3.47;1.42;;;;;;;;;;5016855;28;20041;-75
2023/05/17 02:53:01;;;;;;;2.90;1.83;;;;;;;;;;5042018;28;20032;-75
2023/05/17 02:55:27;;;;;;;5.72;1.80;;;;;;;;;;5028114;28;20525;-75
2023/05/17 02:57:52;;;;;;;4.40;1.75;;;;;;;;;;5032252;28;20044;-75
2023/05/17 03:00:18;;;;;;;5.35;1.60;;;;;;;;;;5020751;28;20041;-74
2023/05/17 03:02:43;;;;;;;3.92;1.45;;;;;;;;;;5031802;28;20050;-76
2023/05/17 03:05:09;;;;;;;8.00;2.38;;;;;;;;;;5017404;28;20087;-76
2023/05/17 03:07:35;;;;;;;4.78;1.90;;;;;;;;;;5027673;28;20065;-76
2023/05/17 03:10:00;;;;;;;3.13;1.83;;;;;;;;;;5027313;28;20056;-76
2023/05/17 03:12:25;;;;;;;3.83;1.50;;;;;;;;;;5026710;28;20558;-76
2023/05/17 03:14:51;;;;;;;3.97;1.55;;;;;;;;;;5018668;28;20041;-76
2023/05/17 03:17:16;;;;;;;6.95;2.10;;;;;;;;;;5026198;28;20106;-76
2023/05/17 03:19:41;;;;;;;7.65;2.30;;;;;;;;;;5020828;28;20045;-76
2023/05/17 03:22:07;;;;;;;4.75;1.80;;;;;;;;;;5026474;28;20063;-76
2023/05/17 03:24:32;;;;;;;5.65;1.98;;;;;;;;;;5027153;28;20033;-77
2023/05/17 03:26:58;;;;;;;6.55;2.03;;;;;;;;;;5030979;28;20040;-77
2023/05/17 03:29:23;;;;;;;5.90;2.10;;;;;;;;;;5016233;28;20044;-77
2023/05/17 03:31:48;;;;;;;4.93;2.55;;;;;;;;;;5026677;28;20087;-76
2023/05/17 03:34:14;;;;;;;9.50;2.40;;;;;;;;;;5015439;28;20048;-77
2023/05/17 03:36:39;;;;;;;4.95;2.30;;;;;;;;;;5018168;28;20387;-76
2023/05/17 03:39:05;;;;;;;4.13;1.63;;;;;;;;;;5029283;28;20033;-75
2023/05/17 03:41:31;;;;;;;7.18;2.33;;;;;;;;;;5027973;28;20037;-76
2023/05/17 03:43:56;;;;;;;5.22;2.20;;;;;;;;;;5024986;28;20041;-76
2023/05/17 03:46:22;;;;;;;2.95;1.50;;;;;;;;;;5023319;28;20040;-76
2023/05/17 03:48:47;;;;;;;2.80;1.42;;;;;;;;;;5023961;28;20037;-77
2023/05/17 03:51:13;;;;;;;7.78;2.67;;;;;;;;;;5025646;28;20033;-77
2023/05/17 03:53:42;;;;;;;4.53;1.92;;;;;;;;;;5026693;28;20037;-77
2023/05/17 03:56:10;;;;;;;9.57;2.03;;;;;;;;;;5015891;28;20040;-76
2023/05/17 03:58:36;;;;;;;3.50;1.70;;;;;;;;;;5029955;28;20049;-77
2023/05/17 04:01:01;;;;;;;3.60;1.75;;;;;;;;;;5018374;28;20796;-78
2023/05/17 04:03:27;;;;;;;3.58;1.77;;;;;;;;;;5030929;28;20037;-77
2023/05/17 04:05:53;;;;;;;4.38;1.52;;;;;;;;;;5029382;28;20036;-77
2023/05/17 04:08:18;;;;;;;4.15;1.95;;;;;;;;;;5025756;28;20037;-77
2023/05/17 04:10:44;;;;;;;6.63;2.30;;;;;;;;;;5021920;28;20033;-77
2023/05/17 04:13:09;;;;;;;2.45;1.80;;;;;;;;;;5009978;28;20040;-78
2023/05/17 04:15:35;;;;;;;5.90;2.60;;;;;;;;;;5018593;28;20075;-77
2023/05/17 04:18:00;;;;;;;7.00;2.33;;;;;;;;;;5018982;28;20612;-77
2023/05/17 04:20:26;;;;;;;4.85;1.88;;;;;;;;;;5033523;28;20152;-77
2023/05/17 04:22:51;;;;;;;4.55;1.88;;;;;;;;;;5030627;28;20116;-77
2023/05/17 04:25:17;;;;;;;6.03;1.88;;;;;;;;;;5016872;28;20445;-77
2023/05/17 04:27:44;;;;;;;4.32;1.90;;;;;;;;;;5025486;28;20840;-77
2023/05/17 04:30:11;;;;;;;7.40;2.08;;;;;;;;;;5010039;28;20037;-77
2023/05/17 04:32:36;;;;;;;3.90;1.75;;;;;;;;;;5027850;28;20517;-77
2023/05/17 04:35:02;;;;;;;5.32;1.85;;;;;;;;;;5025604;28;20063;-77
2023/05/17 04:37:27;;;;;;;5.68;2.17;;;;;;;;;;5003444;28;20148;-77
2023/05/17 04:39:53;;;;;;;3.42;1.50;;;;;;;;;;5025112;28;20037;-77
2023/05/17 04:42:18;;;;;;;7.18;2.35;;;;;;;;;;5015373;28;20051;-76
2023/05/17 04:44:43;;;;;;;4.72;2.22;;;;;;;;;;5018962;28;20044;-77
2023/05/17 04:47:09;;;;;;;9.63;2.70;;;;;;;;;;5024805;28;20045;-77
2023/05/17 04:49:34;;;;;;;6.10;2.60;;;;;;;;;;5030023;28;20033;-77
2023/05/17 04:52:00;;;;;;;6.78;2.40;;;;;;;;;;5014550;28;20074;-77
2023/05/17 04:54:26;;;;;;;5.30;2.30;;;;;;;;;;5033532;28;20048;-77
2023/05/17 04:56:52;;;;;;;3.17;1.80;;;;;;;;;;5024336;28;20095;-77
2023/05/17 04:59:17;;;;;;;4.70;2.53;;;;;;;;;;5004516;28;20048;-77
2023/05/17 05:01:43;;;;;;;7.32;2.33;;;;;;;;;;5025875;28;20041;-77
2023/05/17 05:04:08;;;;;;;6.45;2.20;;;;;;;;;;5027063;28;20029;-76
2023/05/17 05:06:33;;;;;;;4.47;1.75;;;;;;;;;;4998864;28;20089;-77
2023/05/17 05:09:00;;;;;;;4.53;2.03;;;;;;;;;;5008156;28;20131;-78
2023/05/17 05:11:25;;;;;;;2.70;1.52;;;;;;;;;;5019759;28;20591;-76
2023/05/17 05:13:51;;;;;;;3.85;1.85;;;;;;;;;;5028381;28;20041;-80
2023/05/17 05:16:16;;;;;;;5.65;1.63;;;;;;;;;;5009962;28;20044;-78
2023/05/17 05:18:41;;;;;;;4.68;1.33;;;;;;;;;;5038000;28;20079;-79
2023/05/17 05:21:07;;;;;;;5.70;2.08;;;;;;;;;;5040597;28;20421;-79
2023/05/17 05:23:32;;;;;;;6.45;3.00;;;;;;;;;;5037435;28;20378;-79
2023/05/17 05:25:58;;;;;;;7.82;2.83;;;;;;;;;;5031430;28;20718;-80
2023/05/17 05:28:23;;;;;;;5.00;2.25;;;;;;;;;;5034819;28;20029;-78
2023/05/17 05:30:48;;;;;;;4.70;2.38;;;;;;;;;;5028473;28;20075;-78
2023/05/17 05:33:14;;;;;;;5.93;2.22;;;;;;;;;;5028124;28;20049;-79
2023/05/17 05:35:39;;;;;;;4.78;1.65;;;;;;;;;;5031435;28;20021;-79
2023/05/17 05:38:05;;;;;;;8.55;2.63;;;;;;;;;;5039439;28;20021;-79
2023/05/17 05:40:30;;;;;;;3.63;1.70;;;;;;;;;;5027546;28;20055;-79
2023/05/17 05:42:55;;;;;;;5.90;1.83;;;;;;;;;;5027635;28;20378;-79
2023/05/17 05:45:21;;;;;;;5.40;2.22;;;;;;;;;;5029390;28;20036;-79
2023/05/17 05:47:46;;;;;;;6.15;2.70;;;;;;;;;;5035246;28;20025;-79
2023/05/17 05:50:12;;;;;;;6.45;3.08;;;;;;;;;;5035878;28;20032;-79
2023/05/17 05:52:37;;;;;;;5.55;2.58;;;;;;;;;;5038353;28;20021;-79
2023/05/17 05:55:03;;;;;;;4.35;2.00;;;;;;;;;;5034426;28;20029;-78
2023/05/17 05:57:28;;;;;;;6.18;2.10;;;;;;;;;;5033949;28;20116;-78
2023/05/17 05:59:54;;;;;;;5.38;2.25;;;;;;;;;;5029500;28;20021;-79
2023/05/17 06:02:20;;;;;;;5.88;2.53;;;;;;;;;;5028160;28;20558;-79
2023/05/17 06:04:46;;;;;;;5.78;2.13;;;;;;;;;;5029691;28;20036;-79
2023/05/17 06:07:12;;;;;;;3.50;1.73;;;;;;;;;;5028972;28;20024;-79
2023/05/17 06:09:37;;;;;;;4.35;1.67;;;;;;;;;;5029234;28;20060;-79
2023/05/17 06:12:03;;;;;;;6.95;2.47;;;;;;;;;;5030777;28;20021;-78
2023/05/17 06:14:29;;;;;;;5.95;2.83;;;;;;;;;;5033427;28;20417;-79
2023/05/17 06:16:54;;;;;;;6.15;2.60;;;;;;;;;;5031867;28;20083;-79
2023/05/17 06:19:19;;;;;;;9.90;2.83;;;;;;;;;;5049053;28;20032;-80
2023/05/17 06:21:45;;;;;;;7.30;2.80;;;;;;;;;;5037394;28;20025;-80
2023/05/17 06:24:10;;;;;;;8.18;2.63;;;;;;;;;;5051105;28;20645;-79
2023/05/17 06:26:36;;;;;;;4.78;2.28;;;;;;;;;;5032379;28;20034;-79
2023/05/17 06:29:01;;;;;;;5.95;2.75;;;;;;;;;;5036540;28;20024;-78
2023/05/17 06:31:26;;;;;;;9.23;3.00;;;;;;;;;;5032185;28;20111;-78
2023/05/17 06:33:52;;;;;;;5.00;2.17;;;;;;;;;;5050289;28;20518;-78
2023/05/17 06:36:17;;;;;;;5.28;2.20;;;;;;;;;;5014583;28;20042;-78
2023/05/17 06:38:43;;;;;;;7.13;2.30;;;;;;;;;;5029591;28;20100;-79
2023/05/17 06:41:08;;;;;;;5.68;2.45;;;;;;;;;;5035387;28;20104;-79
2023/05/17 06:43:34;;;;;;;4.07;2.20;;;;;;;;;;5019311;28;20036;-79
2023/05/17 06:45:59;;;;;;;4.57;2.20;;;;;;;;;;5038065;28;20485;-80
2023/05/17 06:48:25;;;;;;;5.65;2.20;;;;;;;;;;5047753;28;20038;-80
2023/05/17 06:50:50;;;;;;;6.03;2.20;;;;;;;;;;5037157;28;20025;-80
2023/05/17 06:53:16;;;;;;;9.30;2.20;;;;;;;;;;5033216;28;20478;-79
2023/05/17 06:55:42;;;;;;;5.47;2.20;;;;;;;;;;5034470;28;20055;-80
2023/05/17 06:58:07;;;;;;;4.10;2.08;;;;;;;;;;5027938;28;20017;-80
2023/05/17 07:00:33;;;;;;;4.75;1.90;;;;;;;;;;5046759;28;20478;-79
2023/05/17 07:02:58;;;;;;;4.07;1.80;;;;;;;;;;5035073;28;20059;-79
2023/05/17 07:05:24;;;;;;;5.78;1.90;;;;;;;;;;5035801;28;20032;-79
2023/05/17 07:07:49;;;;;;;4.47;1.70;;;;;;;;;;5037414;28;20397;-80
2023/05/17 07:10:15;;;;;;;5.32;1.88;;;;;;;;;;5045255;28;20030;-79
2023/05/17 07:12:40;;;;;;;5.03;1.80;;;;;;;;;;5033656;28;20040;-78
2023/05/17 07:15:06;;;;;;;6.18;1.73;;;;;;;;;;5039858;28;20021;-80
2023/05/17 07:17:31;;;;;;;6.40;2.42;;;;;;;;;;5035731;28;20554;-79
2023/05/17 07:19:57;;;;;;;5.63;1.63;;;;;;;;;;5041092;28;21035;-80
2023/05/17 07:22:22;;;;;;;7.30;1.98;;;;;;;;;;5035975;28;20053;-79
2023/05/17 07:24:48;;;;;;;4.43;1.92;;;;;;;;;;5038346;28;20020;-80
2023/05/17 07:27:13;;;;;;;3.65;1.90;;;;;;;;;;5035615;28;20080;-79
2023/05/17 07:29:40;;;;;;;4.38;1.40;;;;;;;;;;5033503;28;20033;-78
2023/05/17 07:32:06;;;;;;;4.40;2.15;;;;;;;;;;5033213;28;20033;-78
2023/05/17 07:34:31;;;;;;;7.10;1.50;;;;;;;;;;5050938;28;20116;-79
2023/05/17 07:36:57;;;;;;;4.53;1.25;;;;;;;;;;5036263;28;20083;-80
2023/05/17 07:39:22;;;;;;;4.53;1.55;;;;;;;;;;5032044;28;20089;-80
2023/05/17 07:41:48;;;;;;;6.18;1.75;;;;;;;;;;5038591;28;20500;-79
2023/05/17 07:44:13;;;;;;;4.03;1.50;;;;;;;;;;5036953;28;20025;-80
2023/05/17 07:46:38;;;;;;;6.63;1.27;;;;;;;;;;5038440;28;20477;-80
2023/05/17 07:49:04;;;;;;;2.88;1.40;;;;;;;;;;5033503;28;20029;-79
2023/05/17 07:51:30;;;;;;;4.95;1.13;;;;;;;;;;5037996;28;20420;-79
2023/05/17 07:53:56;;;;;;;4.57;1.52;;;;;;;;;;5034595;28;20021;-79
2023/05/17 07:56:21;;;;;;;7.32;1.35;;;;;;;;;;5034149;28;20032;-78
2023/05/17 07:58:46;;;;;;;6.05;1.60;;;;;;;;;;5038657;28;20459;-80
2023/05/17 08:01:12;;;;;;;5.45;1.42;;;;;;;;;;5037427;28;20032;-79
2023/05/17 08:03:37;;;;;;;4.53;1.10;;;;;;;;;;5039261;28;20025;-78
2023/05/17 08:06:04;;;;;;;7.20;1.20;;;;;;;;;;5036876;28;20647;-78
2023/05/17 08:08:29;;;;;;;3.65;1.23;;;;;;;;;;5034344;28;20025;-79
2023/05/17 08:10:55;;;;;;;4.63;1.30;;;;;;;;;;5029749;28;20084;-79
2023/05/17 08:13:22;;;;;;;7.15;1.50;;;;;;;;;;5036032;28;20060;-79
2023/05/17 08:15:47;;;;;;;5.63;1.55;;;;;;;;;;5029974;28;20033;-79
2023/05/17 08:18:13;;;;;;;6.13;1.50;;;;;;;;;;5035880;28;20104;-79
2023/05/17 08:20:38;;;;;;;1.60;1.05;;;;;;;;;;5039317;28;20045;-79
2023/05/17 08:23:04;;;;;;;5.43;1.30;;;;;;;;;;5031440;28;20029;-78
2023/05/17 08:25:29;;;;;;;3.13;1.10;;;;;;;;;;5031022;28;20021;-79
2023/05/17 08:27:55;;;;;;;4.25;1.27;;;;;;;;;;5037456;28;20040;-79
2023/05/17 08:30:20;;;;;;;2.75;1.25;;;;;;;;;;5049477;28;20043;-78
2023/05/17 08:32:46;;;;;;;4.70;1.30;;;;;;;;;;5040609;28;20195;-78
2023/05/17 08:35:12;;;;;;;2.45;1.30;;;;;;;;;;5035936;28;20421;-79
2023/05/17 08:37:38;;;;;;;4.72;1.60;;;;;;;;;;5032214;28;20033;-79
2023/05/17 08:40:03;;;;;;;5.97;1.70;;;;;;;;;;5032479;28;20029;-78
2023/05/17 08:42:29;;;;;;;7.70;1.63;;;;;;;;;;5038316;28;21858;-79
2023/05/17 08:44:55;;;;;;;4.07;1.50;;;;;;;;;;5032768;28;20100;-79
2023/05/17 08:47:30;;;;;;;5.47;1.42;;;;;;;;;;5050270;28;20033;-79
2023/05/17 08:49:59;;;;;;;6.38;1.58;;;;;;;;;;5038014;28;20079;-78
2023/05/17 08:52:30;;;;;;;3.78;1.30;;;;;;;;;;5037257;28;20031;-78
2023/05/17 08:54:55;;;;;;;6.47;1.48;;;;;;;;;;5032842;28;20025;-79
2023/05/17 08:57:23;;;;;;;4.40;1.40;;;;;;;;;;5036268;28;20024;-78
2023/05/17 08:59:50;;;;;;;4.72;1.20;;;;;;;;;;5035629;28;20029;-78
2023/05/17 09:02:16;;;;;;;3.78;1.50;;;;;;;;;;5033130;28;20032;-78
2023/05/17 09:04:42;;;;;;;5.22;1.35;;;;;;;;;;5033178;28;20032;-79
2023/05/17 09:07:07;;;;;;;8.15;1.52;;;;;;;;;;5034384;28;20060;-79
2023/05/17 09:09:33;;;;;;;4.15;1.25;;;;;;;;;;5030325;28;20021;-78
2023/05/17 09:12:01;;;;;;;10.82;1.40;;;;;;;;;;5029811;28;20667;-79
2023/05/17 09:14:32;;;;;;;7.35;1.20;;;;;;;;;;5045674;28;20026;-79
2023/05/17 09:16:58;;;;;;;4.80;1.27;;;;;;;;;;5035632;28;20503;-79
2023/05/17 09:19:23;;;;;;;4.53;1.10;;;;;;;;;;5049596;28;20063;-78
2023/05/17 09:21:48;;;;;;;5.20;1.27;;;;;;;;;;5045485;28;20364;-79
2023/05/17 09:24:17;;;;;;;4.20;1.17;;;;;;;;;;5028057;28;20013;-78
2023/05/17 09:26:44;;;;;;;5.15;1.20;;;;;;;;;;5028394;28;20076;-79
2023/05/17 09:29:14;;;;;;;3.47;1.30;;;;;;;;;;5034805;28;20028;-78
2023/05/17 09:31:41;;;;;;;4.60;1.25;;;;;;;;;;5043741;28;20041;-79
2023/05/17 09:34:07;;;;;;;4.40;1.25;;;;;;;;;;5029216;28;20026;-78
2023/05/17 09:36:34;;;;;;;2.20;0.80;;;;;;;;;;5045805;28;20162;-79
2023/05/17 09:39:03;;;;;;;5.43;0.93;;;;;;;;;;5031786;28;20024;-79
2023/05/17 09:41:32;;;;;;;3.20;1.10;;;;;;;;;;5036079;28;20485;-78
2023/05/17 09:44:02;;;;;;;2.10;1.50;;;;;;;;;;5028847;28;20022;-78
2023/05/17 09:46:33;;;;;;;2.67;1.00;;;;;;;;;;5029808;28;20029;-79
2023/05/17 09:49:01;;;;;;;3.88;0.90;;;;;;;;;;5038608;28;20021;-79
2023/05/17 09:51:34;;;;;;;2.38;1.00;;;;;;;;;;5036595;28;20057;-78
2023/05/17 09:54:00;;;;;;;3.42;1.00;;;;;;;;;;5045264;28;20545;-79
2023/05/17 09:56:29;;;;;;;3.92;0.95;;;;;;;;;;5035115;28;20104;-79
2023/05/17 09:58:55;;;;;;;7.20;1.40;;;;;;;;;;5034415;28;20021;-78
2023/05/17 10:01:21;;;;;;;3.95;0.93;;;;;;;;;;5039245;28;20520;-80
2023/05/17 10:03:50;;;;;;;7.30;1.73;;;;;;;;;;5045444;28;20529;-79
2023/05/17 10:06:18;;;;;;;3.40;0.93;;;;;;;;;;5029126;28;20154;-79
2023/05/17 10:08:48;;;;;;;3.05;0.80;;;;;;;;;;5044693;28;20026;-79
2023/05/17 10:11:14;;;;;;;2.13;1.07;;;;;;;;;;5037689;28;20013;-79
2023/05/17 10:13:52;;;;;;;2.45;1.05;;;;;;;;;;5029597;28;20786;-78
2023/05/17 10:16:20;;;;;;;5.03;1.33;;;;;;;;;;5033752;28;20035;-79
2023/05/17 10:18:48;;;;;;;4.80;1.55;;;;;;;;;;5030574;28;20135;-79
2023/05/17 10:21:13;;;;;;;3.58;1.23;;;;;;;;;;5046978;28;20100;-79
2023/05/17 10:23:42;;;;;;;3.45;1.20;;;;;;;;;;5031469;28;20048;-79
2023/05/17 10:26:08;;;;;;;6.88;1.38;;;;;;;;;;5030833;28;20022;-80
2023/05/17 10:28:36;;;;;;;3.45;1.23;;;;;;;;;;5029670;28;20032;-80
2023/05/17 10:31:02;;;;;;;4.05;1.25;;;;;;;;;;5031552;28;20029;-78
2023/05/17 10:33:30;;;;;;;3.08;1.35;;;;;;;;;;5032412;28;20032;-79
2023/05/17 10:35:56;;;;;;;4.88;1.00;;;;;;;;;;5033785;28;20038;-79
2023/05/17 10:38:22;;;;;;;4.18;1.05;;;;;;;;;;5028751;28;20032;-79
2023/05/17 10:40:50;;;;;;;3.85;1.17;;;;;;;;;;5028685;28;20112;-79
2023/05/17 10:43:17;;;;;;;4.57;1.45;;;;;;;;;;5027403;28;20026;-79
2023/05/17 10:45:42;;;;;;;2.90;1.13;;;;;;;;;;5031018;28;20414;-79
2023/05/17 10:48:09;;;;;;;3.13;1.17;;;;;;;;;;5032930;28;20013;-80
2023/05/17 10:50:38;;;;;;;3.47;1.15;;;;;;;;;;5032851;28;20025;-79
2023/05/17 10:53:08;;;;;;;6.32;1.35;;;;;;;;;;5029788;28;20052;-79
2023/05/17 10:55:41;;;;;;;3.38;0.90;;;;;;;;;;5032874;28;20048;-78
2023/05/17 10:58:09;;;;;;;4.07;1.35;;;;;;;;;;5036606;28;20076;-80
2023/05/17 11:00:40;;;;;;;5.28;1.20;;;;;;;;;;5035392;28;20056;-80
2023/05/17 11:03:17;;;;;;;2.40;0.90;;;;;;;;;;5030227;28;20022;-80
2023/05/17 11:06:20;;;;;;;2.35;0.95;;;;;;;;;;5036434;28;20037;-79
2023/05/17 11:09:06;;;;;;;5.00;1.58;;;;;;;;;;5036442;28;20022;-79
2023/05/17 11:11:32;;;;;;;4.60;0.90;;;;;;;;;;5032516;28;20017;-79
2023/05/17 11:14:02;;;;;;;3.30;1.05;;;;;;;;;;5037030;28;20033;-80
2023/05/17 11:16:34;;;;;;;4.25;1.40;;;;;;;;;;5035084;28;20053;-79
2023/05/17 11:19:10;;;;;;;3.85;0.90;;;;;;;;;;5046916;28;20016;-80
2023/05/17 11:21:45;;;;;;;2.30;1.00;;;;;;;;;;5043198;28;20052;-80
2023/05/17 11:24:15;;;;;;;5.13;1.10;;;;;;;;;;5049969;28;20068;-79
2023/05/17 11:26:44;;;;;;;4.95;1.42;;;;;;;;;;5032532;28;20452;-79
2023/05/17 11:29:10;;;;;;;3.70;1.00;;;;;;;;;;5032957;28;20029;-79
2023/05/17 11:31:41;;;;;;;8.20;1.40;;;;;;;;;;5046074;28;20033;-79
2023/05/17 11:34:06;;;;;;;4.43;1.00;;;;;;;;;;5035608;28;20024;-78
2023/05/17 11:36:50;;;;;;;3.72;1.10;;;;;;;;;;5031782;28;20022;-79
2023/05/17 11:39:18;;;;;;;4.95;1.17;;;;;;;;;;5034612;28;20025;-80
2023/05/17 11:41:49;;;;;;;2.60;0.98;;;;;;;;;;5050966;28;20022;-80
2023/05/17 11:44:28;;;;;;;6.40;1.48;;;;;;;;;;5037181;28;20013;-78
2023/05/17 11:47:04;;;;;;;2.58;1.02;;;;;;;;;;5033026;28;20057;-80
2023/05/17 11:49:33;;;;;;;5.45;1.40;;;;;;;;;;5031166;28;20029;-78
2023/05/17 11:51:59;;;;;;;4.28;1.08;;;;;;;;;;5054140;28;20059;-79
2023/05/17 11:54:24;;;;;;;2.13;1.30;;;;;;;;;;5035925;28;20030;-80
2023/05/17 11:56:53;;;;;;;4.45;1.10;;;;;;;;;;5046446;28;20033;-80
2023/05/17 11:59:21;;;;;;;4.38;1.40;;;;;;;;;;5034635;28;20021;-80
2023/05/17 12:01:49;;;;;;;6.50;1.58;;;;;;;;;;5035267;28;20570;-78
2023/05/17 12:04:25;;;;;;;3.83;1.17;;;;;;;;;;5037187;28;20024;-80
2023/05/17 12:06:52;;;;;;;2.63;1.00;;;;;;;;;;5031640;28;20029;-79
2023/05/17 12:09:17;;;;;;;5.60;1.20;;;;;;;;;;5046846;28;20036;-80
2023/05/17 12:11:43;;;;;;;2.13;1.08;;;;;;;;;;5038798;28;20382;-80
2023/05/17 12:14:09;;;;;;;2.35;1.10;;;;;;;;;;5038347;28;20110;-79
2023/05/17 12:16:42;;;;;;;7.50;1.45;;;;;;;;;;5034576;28;20040;-79
2023/05/17 12:19:19;;;;;;;5.45;1.45;;;;;;;;;;5043251;28;20045;-79
2023/05/17 12:21:45;;;;;;;5.82;1.45;;;;;;;;;;5034131;28;20037;-80
2023/05/17 12:24:11;;;;;;;4.63;1.27;;;;;;;;;;5042617;28;20009;-79
2023/05/17 12:26:43;;;;;;;3.75;1.13;;;;;;;;;;5035091;28;20036;-79
2023/05/17 12:29:09;;;;;;;4.22;1.00;;;;;;;;;;5035216;28;20052;-79
2023/05/17 12:31:38;;;;;;;4.88;1.30;;;;;;;;;;5031246;28;20084;-80
2023/05/17 12:34:11;;;;;;;2.88;0.90;;;;;;;;;;5030527;28;20029;-79
2023/05/17 12:36:37;;;;;;;8.27;1.70;;;;;;;;;;5039654;28;20037;-79
2023/05/17 12:39:05;;;;;;;4.10;1.13;;;;;;;;;;5034820;28;20656;-80
2023/05/17 12:41:31;;;;;;;3.80;1.02;;;;;;;;;;5026778;28;20029;-78
2023/05/17 12:43:56;;;;;;;2.03;0.82;;;;;;;;;;5031019;28;20048;-78
2023/05/17 12:46:22;;;;;;;4.20;0.95;;;;;;;;;;5038441;28;20033;-80
2023/05/17 12:48:50;;;;;;;3.75;1.20;;;;;;;;;;5040704;28;20078;-80
2023/05/17 12:51:17;;;;;;;4.07;1.10;;;;;;;;;;5030004;28;20045;-78
2023/05/17 12:53:47;;;;;;;5.50;1.20;;;;;;;;;;5035231;28;20075;-79
2023/05/17 12:56:17;;;;;;;5.68;1.58;;;;;;;;;;5041609;28;20032;-80
2023/05/17 12:58:44;;;;;;;6.47;1.30;;;;;;;;;;5037241;28;20037;-79
2023/05/17 13:01:13;;;;;;;5.93;1.50;;;;;;;;;;5046027;28;20130;-80
2023/05/17 13:03:39;;;;;;;5.35;1.17;;;;;;;;;;5030518;28;20021;-79
2023/05/17 13:06:08;;;;;;;3.03;1.23;;;;;;;;;;5030143;28;20044;-79
2023/05/17 13:08:34;;;;;;;3.03;1.25;;;;;;;;;;5037631;28;20513;-79
2023/05/17 13:11:12;;;;;;;3.67;1.30;;;;;;;;;;5032081;28;20025;-79
2023/05/17 13:13:38;;;;;;;5.75;1.40;;;;;;;;;;5033613;28;20029;-79
2023/05/17 13:16:04;;;;;;;3.40;1.38;;;;;;;;;;5034954;28;20401;-79
2023/05/17 13:18:34;;;;;;;4.07;1.55;;;;;;;;;;5034962;28;20028;-79
2023/05/17 13:21:00;;;;;;;5.07;1.55;;;;;;;;;;5035857;28;20021;-79
2023/05/17 13:23:25;;;;;;;3.53;1.40;;;;;;;;;;5029667;28;20040;-79
2023/05/17 13:25:52;;;;;;;5.63;1.65;;;;;;;;;;5034530;28;20024;-79
2023/05/17 13:28:18;;;;;;;5.85;1.50;;;;;;;;;;5029527;28;20105;-79
2023/05/17 13:30:48;;;;;;;6.85;1.73;;;;;;;;;;5031255;28;20049;-80
2023/05/17 13:33:14;;;;;;;7.18;1.52;;;;;;;;;;5029094;28;20433;-78
2023/05/17 13:35:39;;;;;;;4.53;1.67;;;;;;;;;;5029476;28;20053;-79
2023/05/17 13:38:05;;;;;;;4.50;1.27;;;;;;;;;;5034615;28;20098;-79
2023/05/17 13:40:30;;;;;;;2.80;0.98;;;;;;;;;;5031671;28;20547;-79
2023/05/17 13:42:56;;;;;;;5.95;1.52;;;;;;;;;;5032605;28;20021;-80
2023/05/17 13:45:21;;;;;;;3.08;1.02;;;;;;;;;;5027254;28;20221;-79
2023/05/17 13:47:46;;;;;;;6.28;1.70;;;;;;;;;;5029407;28;20026;-79
2023/05/17 13:50:15;;;;;;;4.05;1.45;;;;;;;;;;5029313;28;20018;-79
2023/05/17 13:52:42;;;;;;;3.10;1.20;;;;;;;;;;5032953;28;20040;-80
2023/05/17 13:55:08;;;;;;;6.90;1.70;;;;;;;;;;5028695;28;20017;-78
2023/05/17 13:57:33;;;;;;;8.07;1.50;;;;;;;;;;5030451;28;20032;-79
2023/05/17 13:59:59;;;;;;;5.47;1.65;;;;;;;;;;5029700;28;20033;-78
2023/05/17 14:02:24;;;;;;;3.72;1.20;;;;;;;;;;5039371;28;20021;-79
2023/05/17 14:04:49;;;;;;;4.43;1.50;;;;;;;;;;5035790;28;20386;-80
2023/05/17 14:07:15;;;;;;;3.83;1.30;;;;;;;;;;5045728;28;20144;-79
2023/05/17 14:09:40;;;;;;;5.53;1.40;;;;;;;;;;5033358;28;20496;-80
2023/05/17 14:12:06;;;;;;;5.35;1.60;;;;;;;;;;5028929;28;20025;-80
2023/05/17 14:14:31;;;;;;;4.88;1.60;;;;;;;;;;5033198;28;20026;-80
2023/05/17 14:16:57;;;;;;;6.20;1.40;;;;;;;;;;5033489;28;20056;-80
2023/05/17 14:19:22;;;;;;;4.53;1.40;;;;;;;;;;5033185;28;20506;-79
2023/05/17 14:21:48;;;;;;;5.80;1.60;;;;;;;;;;5044311;28;20053;-79
2023/05/17 14:24:14;;;;;;;4.53;1.85;;;;;;;;;;5036114;28;20064;-78
2023/05/17 14:26:40;;;;;;;4.03;1.20;;;;;;;;;;5033958;28;20027;-79
2023/05/17 14:29:06;;;;;;;2.88;1.00;;;;;;;;;;5036943;28;20135;-79
2023/05/17 14:31:31;;;;;;;3.08;1.30;;;;;;;;;;5033415;28;20596;-79
2023/05/17 14:33:58;;;;;;;6.45;1.50;;;;;;;;;;5041099;28;20159;-79
2023/05/17 14:36:24;;;;;;;5.72;1.50;;;;;;;;;;5041575;28;20013;-79
2023/05/17 14:38:49;;;;;;;4.25;1.33;;;;;;;;;;5038026;28;20036;-79
2023/05/17 14:41:14;;;;;;;4.43;1.27;;;;;;;;;;5053650;28;20022;-79